sensor_id;sensor_type;location;lat;lon;timestamp;temperature;humidity
31799;DHT22;18374;51.136;3.502;2023-02-28T00:01:37;0.40;99.90
31799;DHT22;18374;51.136;3.502;2023-02-28T00:04:05;0.40;99.90
31799;DHT22;18374;51.136;3.502;2023-02-28T00:06:32;0.40;99.90
31799;DHT22;18374;51.136;3.502;2023-02-28T00:09:00;0.30;99.90
31799;DHT22;18374;51.136;3.502;2023-02-28T00:11:28;0.30;99.90
31799;DHT22;18374;51.136;3.502;2023-02-28T00:13:56;0.30;99.90
31799;DHT22;18374;51.136;3.502;2023-02-28T00:16:24;0.30;99.90
31799;DHT22;18374;51.136;3.502;2023-02-28T00:18:52;0.30;99.90
31799;DHT22;18374;51.136;3.502;2023-02-28T00:21:20;0.20;99.90
31799;DHT22;18374;51.136;3.502;2023-02-28T00:23:48;0.30;99.90
31799;DHT22;18374;51.136;3.502;2023-02-28T00:26:15;0.20;99.90
31799;DHT22;18374;51.136;3.502;2023-02-28T00:28:45;0.20;99.90
31799;DHT22;18374;51.136;3.502;2023-02-28T00:31:13;0.20;99.90
31799;DHT22;18374;51.136;3.502;2023-02-28T00:33:40;0.10;99.90
31799;DHT22;18374;51.136;3.502;2023-02-28T00:36:11;0.10;99.90
31799;DHT22;18374;51.136;3.502;2023-02-28T00:38:40;0.00;99.90
31799;DHT22;18374;51.136;3.502;2023-02-28T00:41:08;0.00;99.90
31799;DHT22;18374;51.136;3.502;2023-02-28T00:43:38;0.00;99.90
31799;DHT22;18374;51.136;3.502;2023-02-28T00:46:07;0.00;99.90
31799;DHT22;18374;51.136;3.502;2023-02-28T00:48:35;0.00;99.90
31799;DHT22;18374;51.136;3.502;2023-02-28T00:51:03;0.00;99.90
31799;DHT22;18374;51.136;3.502;2023-02-28T00:53:32;0.00;99.90
31799;DHT22;18374;51.136;3.502;2023-02-28T00:56:00;0.00;99.90
31799;DHT22;18374;51.136;3.502;2023-02-28T00:58:28;-0.10;99.90
31799;DHT22;18374;51.136;3.502;2023-02-28T01:00:57;-0.10;99.90
31799;DHT22;18374;51.136;3.502;2023-02-28T01:03:24;0.00;99.90
31799;DHT22;18374;51.136;3.502;2023-02-28T01:05:52;0.00;99.90
31799;DHT22;18374;51.136;3.502;2023-02-28T01:08:20;0.10;99.90
31799;DHT22;18374;51.136;3.502;2023-02-28T01:10:50;0.10;99.90
31799;DHT22;18374;51.136;3.502;2023-02-28T01:13:18;0.10;99.90
31799;DHT22;18374;51.136;3.502;2023-02-28T01:15:50;0.10;99.90
31799;DHT22;18374;51.136;3.502;2023-02-28T01:18:21;0.10;99.90
31799;DHT22;18374;51.136;3.502;2023-02-28T01:20:49;0.10;99.90
31799;DHT22;18374;51.136;3.502;2023-02-28T01:23:20;0.10;99.90
31799;DHT22;18374;51.136;3.502;2023-02-28T01:25:51;0.10;99.90
31799;DHT22;18374;51.136;3.502;2023-02-28T01:28:19;0.10;99.90
31799;DHT22;18374;51.136;3.502;2023-02-28T01:30:50;0.10;99.90
31799;DHT22;18374;51.136;3.502;2023-02-28T01:33:19;0.10;99.90
31799;DHT22;18374;51.136;3.502;2023-02-28T01:35:47;0.10;99.90
31799;DHT22;18374;51.136;3.502;2023-02-28T01:38:15;0.00;99.90
31799;DHT22;18374;51.136;3.502;2023-02-28T01:40:49;0.10;99.90
31799;DHT22;18374;51.136;3.502;2023-02-28T01:43:23;0.00;99.90
31799;DHT22;18374;51.136;3.502;2023-02-28T01:45:53;-0.10;99.90
31799;DHT22;18374;51.136;3.502;2023-02-28T01:48:25;-0.10;99.90
31799;DHT22;18374;51.136;3.502;2023-02-28T01:50:58;-0.10;99.90
31799;DHT22;18374;51.136;3.502;2023-02-28T01:53:42;-0.10;99.90
31799;DHT22;18374;51.136;3.502;2023-02-28T01:56:19;-0.10;99.90
31799;DHT22;18374;51.136;3.502;2023-02-28T01:58:53;-0.10;99.90
31799;DHT22;18374;51.136;3.502;2023-02-28T02:01:24;-0.10;99.90
31799;DHT22;18374;51.136;3.502;2023-02-28T02:03:59;-0.10;99.90
31799;DHT22;18374;51.136;3.502;2023-02-28T02:06:39;-0.10;99.90
31799;DHT22;18374;51.136;3.502;2023-02-28T02:09:11;-0.20;99.90
31799;DHT22;18374;51.136;3.502;2023-02-28T02:11:43;-0.20;99.90
31799;DHT22;18374;51.136;3.502;2023-02-28T02:23:04;-0.30;99.90
31799;DHT22;18374;51.136;3.502;2023-02-28T02:25:50;-0.30;99.90
31799;DHT22;18374;51.136;3.502;2023-02-28T02:40:19;-0.30;99.90
31799;DHT22;18374;51.136;3.502;2023-02-28T02:42:55;-0.20;99.90
31799;DHT22;18374;51.136;3.502;2023-02-28T02:45:31;-0.30;99.90
31799;DHT22;18374;51.136;3.502;2023-02-28T02:48:08;-0.30;99.90
31799;DHT22;18374;51.136;3.502;2023-02-28T02:50:45;-0.30;99.90
31799;DHT22;18374;51.136;3.502;2023-02-28T02:53:18;-0.30;99.90
31799;DHT22;18374;51.136;3.502;2023-02-28T02:55:53;-0.30;99.90
31799;DHT22;18374;51.136;3.502;2023-02-28T02:58:27;-0.30;99.90
31799;DHT22;18374;51.136;3.502;2023-02-28T03:01:00;-0.30;99.90
31799;DHT22;18374;51.136;3.502;2023-02-28T03:03:31;-0.30;99.90
31799;DHT22;18374;51.136;3.502;2023-02-28T03:06:01;-0.30;99.90
31799;DHT22;18374;51.136;3.502;2023-02-28T03:08:36;-0.30;99.90
31799;DHT22;18374;51.136;3.502;2023-02-28T03:11:10;-0.20;99.90
31799;DHT22;18374;51.136;3.502;2023-02-28T03:14:33;-0.20;99.90
31799;DHT22;18374;51.136;3.502;2023-02-28T03:17:31;-0.10;99.90
31799;DHT22;18374;51.136;3.502;2023-02-28T03:20:39;0.00;99.90
31799;DHT22;18374;51.136;3.502;2023-02-28T03:23:24;0.00;99.90
31799;DHT22;18374;51.136;3.502;2023-02-28T03:26:23;0.00;99.90
31799;DHT22;18374;51.136;3.502;2023-02-28T03:31:52;0.10;99.90
31799;DHT22;18374;51.136;3.502;2023-02-28T03:34:34;0.20;99.90
31799;DHT22;18374;51.136;3.502;2023-02-28T03:37:10;0.20;99.90
31799;DHT22;18374;51.136;3.502;2023-02-28T03:39:46;0.20;99.90
31799;DHT22;18374;51.136;3.502;2023-02-28T03:42:23;0.30;99.90
31799;DHT22;18374;51.136;3.502;2023-02-28T03:45:21;0.30;99.90
31799;DHT22;18374;51.136;3.502;2023-02-28T03:47:54;0.30;99.90
31799;DHT22;18374;51.136;3.502;2023-02-28T03:50:47;0.30;99.90
31799;DHT22;18374;51.136;3.502;2023-02-28T03:53:36;0.30;99.90
31799;DHT22;18374;51.136;3.502;2023-02-28T03:56:21;0.40;99.90
31799;DHT22;18374;51.136;3.502;2023-02-28T03:59:16;0.40;99.90
31799;DHT22;18374;51.136;3.502;2023-02-28T04:01:55;0.50;99.90
31799;DHT22;18374;51.136;3.502;2023-02-28T04:04:25;0.60;99.90
31799;DHT22;18374;51.136;3.502;2023-02-28T04:07:02;0.60;99.90
31799;DHT22;18374;51.136;3.502;2023-02-28T04:09:34;0.60;99.90
31799;DHT22;18374;51.136;3.502;2023-02-28T04:12:02;0.60;99.90
31799;DHT22;18374;51.136;3.502;2023-02-28T04:14:30;0.60;99.90
31799;DHT22;18374;51.136;3.502;2023-02-28T04:16:57;0.60;99.90
31799;DHT22;18374;51.136;3.502;2023-02-28T04:19:25;0.70;99.90
31799;DHT22;18374;51.136;3.502;2023-02-28T04:21:53;0.70;99.90
31799;DHT22;18374;51.136;3.502;2023-02-28T04:24:23;0.70;99.90
31799;DHT22;18374;51.136;3.502;2023-02-28T04:26:54;0.70;99.90
31799;DHT22;18374;51.136;3.502;2023-02-28T04:29:30;0.80;99.90
31799;DHT22;18374;51.136;3.502;2023-02-28T04:32:00;0.80;99.90
31799;DHT22;18374;51.136;3.502;2023-02-28T04:34:30;0.90;99.90
31799;DHT22;18374;51.136;3.502;2023-02-28T04:36:58;0.80;99.90
31799;DHT22;18374;51.136;3.502;2023-02-28T04:39:43;0.80;99.90
31799;DHT22;18374;51.136;3.502;2023-02-28T04:42:11;0.90;99.90
31799;DHT22;18374;51.136;3.502;2023-02-28T04:44:39;0.90;99.90
31799;DHT22;18374;51.136;3.502;2023-02-28T04:47:07;0.90;99.90
31799;DHT22;18374;51.136;3.502;2023-02-28T04:49:35;0.90;99.90
31799;DHT22;18374;51.136;3.502;2023-02-28T04:52:03;0.90;99.90
31799;DHT22;18374;51.136;3.502;2023-02-28T04:54:31;1.00;99.90
31799;DHT22;18374;51.136;3.502;2023-02-28T04:56:59;1.10;99.90
31799;DHT22;18374;51.136;3.502;2023-02-28T04:59:27;1.10;99.90
31799;DHT22;18374;51.136;3.502;2023-02-28T05:01:54;1.00;99.90
31799;DHT22;18374;51.136;3.502;2023-02-28T05:04:22;1.10;99.90
31799;DHT22;18374;51.136;3.502;2023-02-28T05:06:50;1.10;99.90
31799;DHT22;18374;51.136;3.502;2023-02-28T05:09:18;1.10;99.90
31799;DHT22;18374;51.136;3.502;2023-02-28T05:11:45;1.10;99.90
31799;DHT22;18374;51.136;3.502;2023-02-28T05:14:13;1.10;99.90
31799;DHT22;18374;51.136;3.502;2023-02-28T05:16:42;1.20;99.90
31799;DHT22;18374;51.136;3.502;2023-02-28T05:19:10;1.20;99.90
31799;DHT22;18374;51.136;3.502;2023-02-28T05:21:54;1.30;99.90
31799;DHT22;18374;51.136;3.502;2023-02-28T05:24:22;1.30;99.90
31799;DHT22;18374;51.136;3.502;2023-02-28T05:26:52;1.30;99.90
31799;DHT22;18374;51.136;3.502;2023-02-28T05:29:21;1.30;99.90
31799;DHT22;18374;51.136;3.502;2023-02-28T05:31:49;1.30;99.90
31799;DHT22;18374;51.136;3.502;2023-02-28T05:34:17;1.40;99.90
31799;DHT22;18374;51.136;3.502;2023-02-28T05:36:45;1.30;99.90
31799;DHT22;18374;51.136;3.502;2023-02-28T05:39:13;1.30;99.90
31799;DHT22;18374;51.136;3.502;2023-02-28T05:41:42;1.30;99.90
31799;DHT22;18374;51.136;3.502;2023-02-28T05:44:10;1.40;99.90
31799;DHT22;18374;51.136;3.502;2023-02-28T05:46:38;1.40;99.90
31799;DHT22;18374;51.136;3.502;2023-02-28T05:49:06;1.40;99.90
31799;DHT22;18374;51.136;3.502;2023-02-28T05:51:34;1.40;99.90
31799;DHT22;18374;51.136;3.502;2023-02-28T05:54:03;1.40;99.90
31799;DHT22;18374;51.136;3.502;2023-02-28T05:56:32;1.40;99.90
31799;DHT22;18374;51.136;3.502;2023-02-28T05:59:01;1.50;99.90
31799;DHT22;18374;51.136;3.502;2023-02-28T06:01:38;1.50;99.90
31799;DHT22;18374;51.136;3.502;2023-02-28T06:04:09;1.50;99.90
31799;DHT22;18374;51.136;3.502;2023-02-28T06:06:49;1.60;99.90
31799;DHT22;18374;51.136;3.502;2023-02-28T06:09:18;1.50;99.90
31799;DHT22;18374;51.136;3.502;2023-02-28T06:11:46;1.50;99.90
31799;DHT22;18374;51.136;3.502;2023-02-28T06:14:15;1.50;99.90
31799;DHT22;18374;51.136;3.502;2023-02-28T06:16:44;1.50;99.90
31799;DHT22;18374;51.136;3.502;2023-02-28T06:19:13;1.60;99.90
31799;DHT22;18374;51.136;3.502;2023-02-28T06:21:41;1.60;99.90
31799;DHT22;18374;51.136;3.502;2023-02-28T06:24:09;1.60;99.90
31799;DHT22;18374;51.136;3.502;2023-02-28T06:26:37;1.60;99.90
31799;DHT22;18374;51.136;3.502;2023-02-28T06:29:05;1.70;99.90
31799;DHT22;18374;51.136;3.502;2023-02-28T06:31:33;1.70;99.90
31799;DHT22;18374;51.136;3.502;2023-02-28T06:34:01;1.70;99.90
31799;DHT22;18374;51.136;3.502;2023-02-28T06:36:28;1.70;99.90
31799;DHT22;18374;51.136;3.502;2023-02-28T06:38:57;1.70;99.90
31799;DHT22;18374;51.136;3.502;2023-02-28T06:41:26;1.70;99.90
31799;DHT22;18374;51.136;3.502;2023-02-28T06:43:55;1.70;99.90
31799;DHT22;18374;51.136;3.502;2023-02-28T06:46:23;1.80;99.90
31799;DHT22;18374;51.136;3.502;2023-02-28T06:48:51;1.80;99.90
31799;DHT22;18374;51.136;3.502;2023-02-28T06:51:20;1.80;99.90
31799;DHT22;18374;51.136;3.502;2023-02-28T06:53:50;1.90;99.90
31799;DHT22;18374;51.136;3.502;2023-02-28T06:56:19;1.80;99.90
31799;DHT22;18374;51.136;3.502;2023-02-28T06:58:49;1.80;99.90
31799;DHT22;18374;51.136;3.502;2023-02-28T07:01:19;1.90;99.90
31799;DHT22;18374;51.136;3.502;2023-02-28T07:03:47;1.80;99.90
31799;DHT22;18374;51.136;3.502;2023-02-28T07:06:22;1.90;99.90
31799;DHT22;18374;51.136;3.502;2023-02-28T07:08:52;1.90;99.90
31799;DHT22;18374;51.136;3.502;2023-02-28T07:11:22;2.00;99.90
31799;DHT22;18374;51.136;3.502;2023-02-28T07:13:56;2.10;99.90
31799;DHT22;18374;51.136;3.502;2023-02-28T07:16:25;2.10;99.90
31799;DHT22;18374;51.136;3.502;2023-02-28T07:18:54;2.10;99.90
31799;DHT22;18374;51.136;3.502;2023-02-28T07:21:22;2.10;99.90
31799;DHT22;18374;51.136;3.502;2023-02-28T07:23:50;2.10;99.90
31799;DHT22;18374;51.136;3.502;2023-02-28T07:26:18;2.10;99.90
31799;DHT22;18374;51.136;3.502;2023-02-28T07:28:48;2.10;99.90
31799;DHT22;18374;51.136;3.502;2023-02-28T07:31:17;2.20;99.90
31799;DHT22;18374;51.136;3.502;2023-02-28T07:33:46;2.10;99.90
31799;DHT22;18374;51.136;3.502;2023-02-28T07:36:16;2.20;99.90
31799;DHT22;18374;51.136;3.502;2023-02-28T07:38:47;2.20;99.90
31799;DHT22;18374;51.136;3.502;2023-02-28T07:41:21;2.20;99.90
31799;DHT22;18374;51.136;3.502;2023-02-28T07:43:53;2.20;99.90
31799;DHT22;18374;51.136;3.502;2023-02-28T07:46:23;2.20;99.90
31799;DHT22;18374;51.136;3.502;2023-02-28T07:48:51;2.20;99.90
31799;DHT22;18374;51.136;3.502;2023-02-28T07:51:20;2.20;99.90
31799;DHT22;18374;51.136;3.502;2023-02-28T07:53:48;2.10;99.90
31799;DHT22;18374;51.136;3.502;2023-02-28T07:56:16;2.10;99.90
31799;DHT22;18374;51.136;3.502;2023-02-28T07:58:43;2.10;99.90
31799;DHT22;18374;51.136;3.502;2023-02-28T08:01:12;2.10;99.90
31799;DHT22;18374;51.136;3.502;2023-02-28T08:03:40;2.10;99.90
31799;DHT22;18374;51.136;3.502;2023-02-28T08:06:16;2.10;99.90
31799;DHT22;18374;51.136;3.502;2023-02-28T08:08:46;2.10;99.90
31799;DHT22;18374;51.136;3.502;2023-02-28T08:11:14;2.10;99.90
31799;DHT22;18374;51.136;3.502;2023-02-28T08:13:44;2.20;99.90
31799;DHT22;18374;51.136;3.502;2023-02-28T08:16:13;2.10;99.90
31799;DHT22;18374;51.136;3.502;2023-02-28T08:18:45;2.10;99.90
31799;DHT22;18374;51.136;3.502;2023-02-28T08:21:12;2.20;99.90
31799;DHT22;18374;51.136;3.502;2023-02-28T08:23:40;2.10;99.90
31799;DHT22;18374;51.136;3.502;2023-02-28T08:26:08;2.10;99.90
31799;DHT22;18374;51.136;3.502;2023-02-28T08:28:35;2.10;99.90
31799;DHT22;18374;51.136;3.502;2023-02-28T08:31:11;2.20;99.90
31799;DHT22;18374;51.136;3.502;2023-02-28T08:33:41;2.20;99.90
31799;DHT22;18374;51.136;3.502;2023-02-28T08:36:09;2.20;99.90
31799;DHT22;18374;51.136;3.502;2023-02-28T08:38:37;2.30;99.90
31799;DHT22;18374;51.136;3.502;2023-02-28T08:41:07;2.30;99.90
31799;DHT22;18374;51.136;3.502;2023-02-28T08:43:37;2.30;99.90
31799;DHT22;18374;51.136;3.502;2023-02-28T08:46:07;2.30;99.90
31799;DHT22;18374;51.136;3.502;2023-02-28T08:48:36;2.30;99.90
31799;DHT22;18374;51.136;3.502;2023-02-28T08:51:14;2.30;99.90
31799;DHT22;18374;51.136;3.502;2023-02-28T08:53:48;2.40;99.90
31799;DHT22;18374;51.136;3.502;2023-02-28T08:56:16;2.40;99.90
31799;DHT22;18374;51.136;3.502;2023-02-28T08:58:46;2.40;99.90
31799;DHT22;18374;51.136;3.502;2023-02-28T09:01:20;2.40;99.90
31799;DHT22;18374;51.136;3.502;2023-02-28T09:03:51;2.40;99.90
31799;DHT22;18374;51.136;3.502;2023-02-28T09:06:21;2.40;99.90
31799;DHT22;18374;51.136;3.502;2023-02-28T09:08:51;2.40;99.90
31799;DHT22;18374;51.136;3.502;2023-02-28T09:11:19;2.30;99.90
31799;DHT22;18374;51.136;3.502;2023-02-28T09:13:47;2.40;99.90
31799;DHT22;18374;51.136;3.502;2023-02-28T09:16:15;2.40;99.90
31799;DHT22;18374;51.136;3.502;2023-02-28T09:18:44;2.50;99.90
31799;DHT22;18374;51.136;3.502;2023-02-28T09:21:14;2.60;99.90
31799;DHT22;18374;51.136;3.502;2023-02-28T09:23:48;2.60;99.90
31799;DHT22;18374;51.136;3.502;2023-02-28T09:26:19;2.70;99.90
31799;DHT22;18374;51.136;3.502;2023-02-28T09:28:49;2.70;99.90
31799;DHT22;18374;51.136;3.502;2023-02-28T09:31:21;2.70;99.90
31799;DHT22;18374;51.136;3.502;2023-02-28T09:33:51;2.70;99.90
31799;DHT22;18374;51.136;3.502;2023-02-28T09:36:21;2.70;99.90
31799;DHT22;18374;51.136;3.502;2023-02-28T09:39:00;2.70;99.90
31799;DHT22;18374;51.136;3.502;2023-02-28T09:41:36;2.80;99.90
31799;DHT22;18374;51.136;3.502;2023-02-28T09:44:15;2.80;99.90
31799;DHT22;18374;51.136;3.502;2023-02-28T09:47:07;2.90;99.90
31799;DHT22;18374;51.136;3.502;2023-02-28T09:49:43;2.90;99.90
31799;DHT22;18374;51.136;3.502;2023-02-28T09:52:19;2.90;99.90
31799;DHT22;18374;51.136;3.502;2023-02-28T09:54:49;2.90;99.90
31799;DHT22;18374;51.136;3.502;2023-02-28T09:57:25;3.00;99.90
31799;DHT22;18374;51.136;3.502;2023-02-28T10:03:16;3.20;99.90
31799;DHT22;18374;51.136;3.502;2023-02-28T10:09:44;3.30;99.90
31799;DHT22;18374;51.136;3.502;2023-02-28T10:12:14;3.30;99.90
31799;DHT22;18374;51.136;3.502;2023-02-28T10:14:46;3.20;99.90
31799;DHT22;18374;51.136;3.502;2023-02-28T10:17:21;3.20;99.90
31799;DHT22;18374;51.136;3.502;2023-02-28T10:20:14;3.30;99.90
31799;DHT22;18374;51.136;3.502;2023-02-28T10:22:56;3.30;99.90
31799;DHT22;18374;51.136;3.502;2023-02-28T10:25:28;3.40;99.90
31799;DHT22;18374;51.136;3.502;2023-02-28T10:28:04;3.40;99.90
31799;DHT22;18374;51.136;3.502;2023-02-28T10:30:40;3.40;99.90
31799;DHT22;18374;51.136;3.502;2023-02-28T10:33:33;3.50;99.90
31799;DHT22;18374;51.136;3.502;2023-02-28T10:36:02;3.50;99.90
31799;DHT22;18374;51.136;3.502;2023-02-28T10:38:36;3.50;99.90
31799;DHT22;18374;51.136;3.502;2023-02-28T10:41:16;3.60;99.90
31799;DHT22;18374;51.136;3.502;2023-02-28T10:46:49;3.70;99.90
31799;DHT22;18374;51.136;3.502;2023-02-28T10:49:23;3.80;99.90
31799;DHT22;18374;51.136;3.502;2023-02-28T10:52:00;3.80;99.90
31799;DHT22;18374;51.136;3.502;2023-02-28T10:54:34;3.90;99.90
31799;DHT22;18374;51.136;3.502;2023-02-28T10:57:09;3.90;99.90
31799;DHT22;18374;51.136;3.502;2023-02-28T10:59:45;4.00;99.90
31799;DHT22;18374;51.136;3.502;2023-02-28T11:02:36;4.10;99.90
31799;DHT22;18374;51.136;3.502;2023-02-28T11:05:32;4.30;99.90
31799;DHT22;18374;51.136;3.502;2023-02-28T11:08:06;4.40;99.90
31799;DHT22;18374;51.136;3.502;2023-02-28T11:10:46;4.60;99.90
31799;DHT22;18374;51.136;3.502;2023-02-28T11:13:21;4.60;99.90
31799;DHT22;18374;51.136;3.502;2023-02-28T11:16:04;4.60;99.90
31799;DHT22;18374;51.136;3.502;2023-02-28T11:21:10;4.80;99.90
31799;DHT22;18374;51.136;3.502;2023-02-28T11:23:44;4.70;99.90
31799;DHT22;18374;51.136;3.502;2023-02-28T11:26:12;4.70;99.90
31799;DHT22;18374;51.136;3.502;2023-02-28T11:28:41;4.80;99.90
31799;DHT22;18374;51.136;3.502;2023-02-28T11:36:25;5.30;99.90
31799;DHT22;18374;51.136;3.502;2023-02-28T11:38:59;5.60;99.90
31799;DHT22;18374;51.136;3.502;2023-02-28T11:47:59;5.90;99.90
31799;DHT22;18374;51.136;3.502;2023-02-28T12:28:34;6.50;99.60
31799;DHT22;18374;51.136;3.502;2023-02-28T12:31:20;6.40;99.90
31799;DHT22;18374;51.136;3.502;2023-02-28T12:33:59;6.50;99.90
31799;DHT22;18374;51.136;3.502;2023-02-28T12:36:29;6.60;99.90
31799;DHT22;18374;51.136;3.502;2023-02-28T12:39:04;6.80;99.90
31799;DHT22;18374;51.136;3.502;2023-02-28T12:44:28;6.70;98.90
31799;DHT22;18374;51.136;3.502;2023-02-28T12:47:03;6.70;98.00
31799;DHT22;18374;51.136;3.502;2023-02-28T12:58:19;6.80;98.10
31799;DHT22;18374;51.136;3.502;2023-02-28T13:01:12;6.90;97.30
31799;DHT22;18374;51.136;3.502;2023-02-28T13:09:56;7.30;95.30
31799;DHT22;18374;51.136;3.502;2023-02-28T13:12:25;7.20;95.20
31799;DHT22;18374;51.136;3.502;2023-02-28T13:17:40;7.10;95.50
31799;DHT22;18374;51.136;3.502;2023-02-28T13:20:21;7.30;94.40
31799;DHT22;18374;51.136;3.502;2023-02-28T13:22:52;7.40;94.90
31799;DHT22;18374;51.136;3.502;2023-02-28T13:27:51;7.70;94.30
31799;DHT22;18374;51.136;3.502;2023-02-28T13:33:28;7.30;94.30
31799;DHT22;18374;51.136;3.502;2023-02-28T13:44:16;7.80;93.20
31799;DHT22;18374;51.136;3.502;2023-02-28T13:51:56;7.90;92.10
31799;DHT22;18374;51.136;3.502;2023-02-28T14:07:04;7.80;87.90
31799;DHT22;18374;51.136;3.502;2023-02-28T14:09:45;7.90;86.20
31799;DHT22;18374;51.136;3.502;2023-02-28T14:20:49;8.10;86.40
31799;DHT22;18374;51.136;3.502;2023-02-28T14:43:59;7.90;85.80
31799;DHT22;18374;51.136;3.502;2023-02-28T14:46:37;7.70;85.00
31799;DHT22;18374;51.136;3.502;2023-02-28T14:49:11;7.40;85.40
31799;DHT22;18374;51.136;3.502;2023-02-28T14:52:20;7.20;86.00
31799;DHT22;18374;51.136;3.502;2023-02-28T14:55:14;7.10;84.60
31799;DHT22;18374;51.136;3.502;2023-02-28T14:57:56;7.00;86.60
31799;DHT22;18374;51.136;3.502;2023-02-28T15:00:28;6.70;88.50
31799;DHT22;18374;51.136;3.502;2023-02-28T15:03:00;6.80;86.00
31799;DHT22;18374;51.136;3.502;2023-02-28T15:05:31;7.00;85.70
31799;DHT22;18374;51.136;3.502;2023-02-28T15:10:59;6.60;87.90
31799;DHT22;18374;51.136;3.502;2023-02-28T15:13:48;6.60;86.80
31799;DHT22;18374;51.136;3.502;2023-02-28T15:16:29;6.50;88.70
31799;DHT22;18374;51.136;3.502;2023-02-28T15:19:13;6.50;89.10
31799;DHT22;18374;51.136;3.502;2023-02-28T15:21:50;6.60;88.70
31799;DHT22;18374;51.136;3.502;2023-02-28T15:24:42;6.40;90.00
31799;DHT22;18374;51.136;3.502;2023-02-28T15:27:21;6.30;90.10
31799;DHT22;18374;51.136;3.502;2023-02-28T15:29:57;6.30;90.00
31799;DHT22;18374;51.136;3.502;2023-02-28T15:35:34;6.30;88.70
31799;DHT22;18374;51.136;3.502;2023-02-28T15:38:16;6.20;89.90
31799;DHT22;18374;51.136;3.502;2023-02-28T15:40:49;6.00;90.60
31799;DHT22;18374;51.136;3.502;2023-02-28T15:43:27;6.00;91.00
31799;DHT22;18374;51.136;3.502;2023-02-28T15:46:00;6.10;90.10
31799;DHT22;18374;51.136;3.502;2023-02-28T15:48:31;6.10;90.30
31799;DHT22;18374;51.136;3.502;2023-02-28T15:51:14;6.20;90.00
31799;DHT22;18374;51.136;3.502;2023-02-28T15:59:07;6.00;90.60
31799;DHT22;18374;51.136;3.502;2023-02-28T16:01:40;5.80;90.30
31799;DHT22;18374;51.136;3.502;2023-02-28T16:04:19;5.80;90.90
31799;DHT22;18374;51.136;3.502;2023-02-28T16:07:04;5.60;91.20
31799;DHT22;18374;51.136;3.502;2023-02-28T16:09:33;5.50;91.40
31799;DHT22;18374;51.136;3.502;2023-02-28T16:12:02;5.40;91.60
31799;DHT22;18374;51.136;3.502;2023-02-28T16:14:31;5.40;91.20
31799;DHT22;18374;51.136;3.502;2023-02-28T16:17:05;5.40;91.80
31799;DHT22;18374;51.136;3.502;2023-02-28T16:19:36;5.50;91.90
31799;DHT22;18374;51.136;3.502;2023-02-28T16:22:03;5.30;92.30
31799;DHT22;18374;51.136;3.502;2023-02-28T16:24:31;5.30;92.80
31799;DHT22;18374;51.136;3.502;2023-02-28T16:26:59;5.40;91.90
31799;DHT22;18374;51.136;3.502;2023-02-28T16:29:31;5.40;92.60
31799;DHT22;18374;51.136;3.502;2023-02-28T16:32:00;5.30;93.10
31799;DHT22;18374;51.136;3.502;2023-02-28T16:34:30;5.20;92.80
31799;DHT22;18374;51.136;3.502;2023-02-28T16:36:58;5.10;93.40
31799;DHT22;18374;51.136;3.502;2023-02-28T16:39:26;5.00;93.50
31799;DHT22;18374;51.136;3.502;2023-02-28T16:41:53;5.00;93.80
31799;DHT22;18374;51.136;3.502;2023-02-28T16:44:29;5.00;93.80
31799;DHT22;18374;51.136;3.502;2023-02-28T16:47:00;4.90;93.50
31799;DHT22;18374;51.136;3.502;2023-02-28T16:49:29;4.90;93.80
31799;DHT22;18374;51.136;3.502;2023-02-28T16:51:57;4.90;94.10
31799;DHT22;18374;51.136;3.502;2023-02-28T16:54:25;4.90;93.70
31799;DHT22;18374;51.136;3.502;2023-02-28T16:56:54;4.80;93.80
31799;DHT22;18374;51.136;3.502;2023-02-28T16:59:23;4.80;94.70
31799;DHT22;18374;51.136;3.502;2023-02-28T17:01:53;4.70;94.50
31799;DHT22;18374;51.136;3.502;2023-02-28T17:04:21;4.70;94.10
31799;DHT22;18374;51.136;3.502;2023-02-28T17:06:49;4.60;94.60
31799;DHT22;18374;51.136;3.502;2023-02-28T17:09:20;4.60;94.70
31799;DHT22;18374;51.136;3.502;2023-02-28T17:11:57;4.50;95.30
31799;DHT22;18374;51.136;3.502;2023-02-28T17:14:25;4.40;95.40
31799;DHT22;18374;51.136;3.502;2023-02-28T17:16:52;4.30;95.40
31799;DHT22;18374;51.136;3.502;2023-02-28T17:19:20;4.30;95.70
31799;DHT22;18374;51.136;3.502;2023-02-28T17:21:48;4.20;95.60
31799;DHT22;18374;51.136;3.502;2023-02-28T17:24:16;4.10;96.10
31799;DHT22;18374;51.136;3.502;2023-02-28T17:26:56;4.20;96.00
31799;DHT22;18374;51.136;3.502;2023-02-28T17:29:24;4.20;96.50
31799;DHT22;18374;51.136;3.502;2023-02-28T17:31:52;4.00;96.30
31799;DHT22;18374;51.136;3.502;2023-02-28T17:34:19;3.90;97.30
31799;DHT22;18374;51.136;3.502;2023-02-28T17:36:49;3.80;96.60
31799;DHT22;18374;51.136;3.502;2023-02-28T17:39:19;3.80;96.90
31799;DHT22;18374;51.136;3.502;2023-02-28T17:41:55;3.70;97.30
31799;DHT22;18374;51.136;3.502;2023-02-28T17:44:24;3.70;97.20
31799;DHT22;18374;51.136;3.502;2023-02-28T17:46:53;3.60;97.30
31799;DHT22;18374;51.136;3.502;2023-02-28T17:49:22;3.50;97.50
31799;DHT22;18374;51.136;3.502;2023-02-28T17:51:50;3.60;97.10
31799;DHT22;18374;51.136;3.502;2023-02-28T17:54:17;3.50;97.40
31799;DHT22;18374;51.136;3.502;2023-02-28T17:56:45;3.40;97.60
31799;DHT22;18374;51.136;3.502;2023-02-28T17:59:13;3.40;97.60
31799;DHT22;18374;51.136;3.502;2023-02-28T18:01:41;3.40;98.30
31799;DHT22;18374;51.136;3.502;2023-02-28T18:04:09;3.20;97.90
31799;DHT22;18374;51.136;3.502;2023-02-28T18:06:39;3.20;98.30
31799;DHT22;18374;51.136;3.502;2023-02-28T18:09:20;3.20;98.30
31799;DHT22;18374;51.136;3.502;2023-02-28T18:11:50;3.20;98.40
31799;DHT22;18374;51.136;3.502;2023-02-28T18:14:21;3.10;98.50
31799;DHT22;18374;51.136;3.502;2023-02-28T18:16:53;3.10;98.70
31799;DHT22;18374;51.136;3.502;2023-02-28T18:19:22;3.00;99.10
31799;DHT22;18374;51.136;3.502;2023-02-28T18:21:52;3.00;98.90
31799;DHT22;18374;51.136;3.502;2023-02-28T18:24:21;2.90;99.10
31799;DHT22;18374;51.136;3.502;2023-02-28T18:26:51;3.00;99.70
31799;DHT22;18374;51.136;3.502;2023-02-28T18:29:21;2.90;99.30
31799;DHT22;18374;51.136;3.502;2023-02-28T18:31:51;2.80;99.60
31799;DHT22;18374;51.136;3.502;2023-02-28T18:34:20;2.80;99.70
31799;DHT22;18374;51.136;3.502;2023-02-28T18:36:51;2.70;99.90
31799;DHT22;18374;51.136;3.502;2023-02-28T18:39:19;2.70;99.80
31799;DHT22;18374;51.136;3.502;2023-02-28T18:41:47;2.60;99.90
31799;DHT22;18374;51.136;3.502;2023-02-28T18:44:15;2.60;99.90
31799;DHT22;18374;51.136;3.502;2023-02-28T18:46:48;2.60;99.90
31799;DHT22;18374;51.136;3.502;2023-02-28T18:49:17;2.60;99.90
31799;DHT22;18374;51.136;3.502;2023-02-28T18:51:45;2.50;99.90
31799;DHT22;18374;51.136;3.502;2023-02-28T18:54:14;2.50;99.90
31799;DHT22;18374;51.136;3.502;2023-02-28T18:56:43;2.60;99.90
31799;DHT22;18374;51.136;3.502;2023-02-28T18:59:11;2.60;99.90
31799;DHT22;18374;51.136;3.502;2023-02-28T19:01:39;2.50;99.90
31799;DHT22;18374;51.136;3.502;2023-02-28T19:04:11;2.40;99.90
31799;DHT22;18374;51.136;3.502;2023-02-28T19:06:40;2.30;99.90
31799;DHT22;18374;51.136;3.502;2023-02-28T19:09:08;2.20;99.90
31799;DHT22;18374;51.136;3.502;2023-02-28T19:11:36;2.00;99.90
31799;DHT22;18374;51.136;3.502;2023-02-28T19:14:04;1.90;99.90
31799;DHT22;18374;51.136;3.502;2023-02-28T19:16:32;1.80;99.90